createdAt,value
2022-12-31T00:00:13.505Z,94908.75
2022-12-31T00:02:40.395Z,94918.00
2022-12-31T00:05:08.107Z,94929.91
2022-12-31T00:10:00.771Z,94937.88
2022-12-31T00:12:27.489Z,94932.34
2022-12-31T00:14:54.090Z,94946.63
2022-12-31T00:17:22.056Z,94943.72
2022-12-31T00:19:48.613Z,94940.03
2022-12-31T00:22:15.229Z,94939.75
2022-12-31T00:24:42.096Z,94938.69
2022-12-31T00:27:08.718Z,94943.47
2022-12-31T00:29:35.351Z,94938.44
2022-12-31T00:32:01.960Z,94945.31
2022-12-31T00:34:29.891Z,94947.19
2022-12-31T00:36:56.542Z,94958.56
2022-12-31T00:39:23.166Z,94966.03
2022-12-31T00:41:49.869Z,94966.28
2022-12-31T00:44:16.479Z,94961.78
2022-12-31T00:49:10.010Z,94945.63
2022-12-31T00:51:37.966Z,94945.63
2022-12-31T00:54:04.718Z,94952.75
2022-12-31T00:56:31.964Z,94976.63
2022-12-31T00:58:59.437Z,94985.66
2022-12-31T01:01:28.390Z,94978.25
2022-12-31T01:03:57.771Z,94974.56
2022-12-31T01:06:24.753Z,94974.56
2022-12-31T01:08:53.954Z,94972.16
2022-12-31T01:11:23.919Z,94968.72
2022-12-31T01:13:52.989Z,94967.09
2022-12-31T01:16:22.534Z,94970.28
2022-12-31T01:18:49.920Z,94983.31
2022-12-31T01:21:17.579Z,94975.88
2022-12-31T01:23:44.360Z,94982.47
2022-12-31T01:26:14.353Z,94987.78
2022-12-31T01:28:41.442Z,94984.88
2022-12-31T01:31:10.380Z,94996.28
2022-12-31T01:33:37.545Z,94993.38
2022-12-31T01:36:05.669Z,95000.53
2022-12-31T01:38:33.581Z,95008.75
2022-12-31T01:41:00.510Z,94997.84
2022-12-31T01:43:48.741Z,95001.56
2022-12-31T01:46:23.493Z,94997.59
2022-12-31T01:48:53.160Z,94995.47
2022-12-31T01:51:20.953Z,95007.94
2022-12-31T01:53:48.487Z,95010.59
2022-12-31T01:56:15.809Z,95001.00
2022-12-31T01:58:45.994Z,94997.81
2022-12-31T02:01:20.714Z,94999.91
2022-12-31T02:03:47.449Z,94996.22
2022-12-31T02:06:19.287Z,95007.59
2022-12-31T02:08:46.162Z,95012.38
2022-12-31T02:11:24.055Z,95001.47
2022-12-31T02:13:58.018Z,95008.13
2022-12-31T02:16:34.478Z,94996.66
2022-12-31T02:19:34.575Z,94992.13
2022-12-31T02:22:08.755Z,94987.63
2022-12-31T02:24:57.965Z,94988.94
2022-12-31T02:27:41.193Z,94990.50
2022-12-31T02:30:15.140Z,94991.53
2022-12-31T02:32:50.282Z,95003.47
2022-12-31T02:35:22.125Z,94990.69
2022-12-31T02:37:53.633Z,94996.25
2022-12-31T02:40:22.229Z,95003.97
2022-12-31T02:42:55.075Z,95003.16
2022-12-31T02:45:31.165Z,95005.00
2022-12-31T02:48:05.722Z,95009.50
2022-12-31T02:50:41.035Z,95004.69
2022-12-31T02:53:24.920Z,95008.13
2022-12-31T02:55:58.140Z,95006.78
2022-12-31T02:58:51.620Z,95005.97
2022-12-31T03:01:44.803Z,95012.59
2022-12-31T03:04:32.380Z,95020.28
2022-12-31T03:07:00.898Z,95010.41
2022-12-31T03:09:27.669Z,95020.47
2022-12-31T03:12:13.209Z,95017.53
2022-12-31T03:14:40.044Z,95014.56
2022-12-31T03:17:08.202Z,95020.66
2022-12-31T03:19:53.525Z,95019.53
2022-12-31T03:22:29.722Z,95013.69
2022-12-31T03:25:18.664Z,95011.00
2022-12-31T03:27:46.031Z,95005.66
2022-12-31T03:30:14.742Z,95006.16
2022-12-31T03:32:44.523Z,95003.97
2022-12-31T03:35:12.143Z,95011.13
2022-12-31T03:37:39.718Z,95018.34
2022-12-31T03:40:08.698Z,95017.81
2022-12-31T03:42:35.339Z,95018.34
2022-12-31T03:45:02.439Z,95009.03
2022-12-31T03:47:29.089Z,95017.50
2022-12-31T03:49:57.021Z,95021.25
2022-12-31T03:52:23.705Z,95017.03
2022-12-31T03:54:50.341Z,95018.06
2022-12-31T03:57:16.988Z,95027.38
2022-12-31T03:59:43.768Z,95016.16
2022-12-31T04:02:10.771Z,95017.47
2022-12-31T04:04:37.550Z,95020.66
2022-12-31T04:07:05.742Z,95025.44
2022-12-31T04:09:32.376Z,95035.31
2022-12-31T04:11:59.068Z,95042.75
2022-12-31T04:14:25.692Z,95040.09
2022-12-31T04:16:52.440Z,95055.81
2022-12-31T04:19:19.301Z,95049.41
2022-12-31T04:21:45.989Z,95054.47
2022-12-31T04:24:14.823Z,95048.38
2022-12-31T04:26:42.433Z,95063.03
2022-12-31T04:29:09.026Z,95074.72
2022-12-31T04:31:36.049Z,95072.34
2022-12-31T04:34:02.849Z,95075.56
2022-12-31T04:36:29.445Z,95061.22
2022-12-31T04:38:56.354Z,95064.97
2022-12-31T04:41:27.048Z,95068.47
2022-12-31T04:43:55.943Z,95065.84
2022-12-31T04:46:24.547Z,95074.94
2022-12-31T04:48:51.596Z,95068.56
2022-12-31T04:51:18.993Z,95067.53
2022-12-31T04:53:45.641Z,95073.13
2022-12-31T04:56:12.404Z,95069.41
2022-12-31T04:58:40.716Z,95071.88
2022-12-31T05:01:08.213Z,95070.03
2022-12-31T05:03:36.163Z,95077.28
2022-12-31T05:06:05.162Z,95080.50
2022-12-31T05:08:32.447Z,95081.38
2022-12-31T05:10:59.428Z,95084.81
2022-12-31T05:13:31.225Z,95085.63
2022-12-31T05:16:01.737Z,95082.50
2022-12-31T05:18:28.924Z,95091.78
2022-12-31T05:20:55.535Z,95085.94
2022-12-31T05:23:23.824Z,95086.22
2022-12-31T05:25:50.751Z,95092.03
2022-12-31T05:28:17.670Z,95094.69
2022-12-31T05:30:47.605Z,95082.72
2022-12-31T05:33:15.874Z,95083.47
2022-12-31T05:35:42.545Z,95090.59
2022-12-31T05:38:09.299Z,95100.13
2022-12-31T05:40:35.991Z,95090.03
2022-12-31T05:43:02.915Z,95099.25
2022-12-31T05:45:31.243Z,95091.78
2022-12-31T05:47:58.646Z,95093.56
2022-12-31T05:50:26.617Z,95095.09
2022-12-31T05:52:56.238Z,95088.72
2022-12-31T05:55:23.013Z,95092.31
2022-12-31T05:57:49.861Z,95091.22
2022-12-31T06:00:17.304Z,95101.22
2022-12-31T06:02:44.978Z,95101.19
2022-12-31T06:05:12.304Z,95097.16
2022-12-31T06:07:40.411Z,95100.81
2022-12-31T06:10:08.083Z,95112.66
2022-12-31T06:12:35.489Z,95111.81
2022-12-31T06:15:02.577Z,95113.34
2022-12-31T06:17:31.958Z,95108.56
2022-12-31T06:19:59.610Z,95104.56
2022-12-31T06:22:26.490Z,95116.22
2022-12-31T06:24:54.587Z,95106.13
2022-12-31T06:27:21.269Z,95102.16
2022-12-31T06:29:48.119Z,95118.81
2022-12-31T06:32:15.832Z,95111.66
2022-12-31T06:34:42.585Z,95106.09
2022-12-31T06:37:09.839Z,95111.88
2022-12-31T06:39:36.469Z,95127.69
2022-12-31T06:42:04.813Z,95120.75
2022-12-31T06:44:31.664Z,95117.03
2022-12-31T06:46:58.314Z,95124.41
2022-12-31T06:49:24.921Z,95130.41
2022-12-31T06:51:51.582Z,95139.13
2022-12-31T06:54:19.177Z,95136.16
2022-12-31T06:56:46.416Z,95149.06
2022-12-31T06:59:24.411Z,95155.94
2022-12-31T07:02:05.039Z,95161.22
2022-12-31T07:05:24.157Z,95150.16
2022-12-31T07:07:58.496Z,95158.91
2022-12-31T07:10:36.701Z,95160.50
2022-12-31T07:13:30.701Z,95166.34
2022-12-31T07:16:12.729Z,95168.44
2022-12-31T07:18:46.180Z,95167.63
2022-12-31T07:21:15.330Z,95158.66
2022-12-31T07:23:43.298Z,95162.03
2022-12-31T07:26:22.875Z,95162.78
2022-12-31T07:29:01.199Z,95168.81
2022-12-31T07:31:41.383Z,95162.97
2022-12-31T07:34:19.989Z,95172.97
2022-12-31T07:36:59.402Z,95182.75
2022-12-31T07:39:35.405Z,95187.22
2022-12-31T07:42:11.508Z,95185.38
2022-12-31T07:44:44.947Z,95194.38
2022-12-31T07:47:20.924Z,95196.44
2022-12-31T07:49:48.668Z,95202.22
2022-12-31T07:52:16.013Z,95197.44
2022-12-31T07:54:42.795Z,95188.69
2022-12-31T07:57:11.471Z,95186.38
2022-12-31T07:59:52.599Z,95189.03
2022-12-31T08:02:31.196Z,95188.53
2022-12-31T08:05:06.610Z,95190.66
2022-12-31T08:07:41.615Z,95190.72
2022-12-31T08:10:17.999Z,95190.84
2022-12-31T08:12:46.934Z,95193.63
2022-12-31T08:15:15.029Z,95209.59
2022-12-31T08:17:43.431Z,95194.88
2022-12-31T08:20:13.691Z,95196.84
2022-12-31T08:23:05.349Z,95207.75
2022-12-31T08:25:38.345Z,95191.47
2022-12-31T08:28:16.387Z,95190.53
2022-12-31T08:30:54.911Z,95192.81
2022-12-31T08:33:32.337Z,95203.47
2022-12-31T08:36:15.898Z,95192.69
2022-12-31T08:38:49.730Z,95189.03
2022-12-31T08:41:23.818Z,95189.34
2022-12-31T08:44:01.639Z,95196.03
2022-12-31T08:46:34.215Z,95198.25
2022-12-31T08:49:02.698Z,95203.41
2022-12-31T08:51:30.304Z,95199.53
2022-12-31T08:53:57.427Z,95197.00
2022-12-31T08:56:31.748Z,95192.06
2022-12-31T08:59:13.951Z,95182.28
2022-12-31T09:01:47.595Z,95188.94
2022-12-31T09:04:24.991Z,95187.09
2022-12-31T09:06:58.242Z,95190.78
2022-12-31T09:09:38.256Z,95188.41
2022-12-31T09:12:11.184Z,95189.22
2022-12-31T09:14:45.228Z,95185.47
2022-12-31T09:17:31.876Z,95197.47
2022-12-31T09:20:00.881Z,95195.84
2022-12-31T09:22:28.018Z,95189.47
2022-12-31T09:24:55.035Z,95188.41
2022-12-31T09:27:28.294Z,95191.63
2022-12-31T09:30:01.760Z,95194.81
2022-12-31T09:32:41.789Z,95187.09
2022-12-31T09:35:19.181Z,95188.41
2022-12-31T09:37:48.210Z,95188.41
2022-12-31T09:40:46.065Z,95176.94
2022-12-31T09:43:40.928Z,95176.69
2022-12-31T09:46:33.662Z,95183.28
2022-12-31T09:49:36.407Z,95181.81
2022-12-31T09:52:17.031Z,95188.34
2022-12-31T09:54:53.984Z,95188.41
2022-12-31T09:57:39.817Z,95179.19
2022-12-31T10:00:13.288Z,95177.00
2022-12-31T10:03:03.045Z,95180.56
2022-12-31T10:05:50.405Z,95169.25
2022-12-31T10:08:43.089Z,95168.91
2022-12-31T10:11:17.921Z,95166.69
2022-12-31T10:13:53.650Z,95156.19
2022-12-31T10:16:50.639Z,95153.31
2022-12-31T10:19:39.423Z,95155.59
2022-12-31T10:22:22.197Z,95150.03
2022-12-31T10:25:20.113Z,95139.91
2022-12-31T10:27:54.657Z,95139.66
2022-12-31T10:30:23.978Z,95141.88
2022-12-31T10:33:06.685Z,95145.31
2022-12-31T10:35:42.296Z,95135.16
2022-12-31T10:38:26.676Z,95141.75
2022-12-31T10:41:43.083Z,95141.41
2022-12-31T10:44:35.040Z,95130.44
2022-12-31T10:47:20.857Z,95124.47
2022-12-31T10:50:15.881Z,95131.72
2022-12-31T10:53:10.096Z,95121.00
2022-12-31T10:56:07.842Z,95125.38
2022-12-31T10:58:54.240Z,95122.09
2022-12-31T11:01:34.434Z,95121.69
2022-12-31T11:04:38.609Z,95118.44
2022-12-31T11:07:31.841Z,95114.72
2022-12-31T11:10:19.966Z,95107.03
2022-12-31T11:13:09.553Z,95099.66
2022-12-31T11:16:03.449Z,95098.22
2022-12-31T11:18:40.244Z,95100.75
2022-12-31T11:21:28.242Z,95102.34
2022-12-31T11:24:03.985Z,95103.44
2022-12-31T11:26:42.547Z,95100.13
2022-12-31T11:29:24.540Z,95096.81
2022-12-31T11:32:05.628Z,95086.69
2022-12-31T11:34:50.640Z,95081.72
2022-12-31T11:37:32.297Z,95088.66
2022-12-31T11:40:04.257Z,95076.97
2022-12-31T11:42:44.020Z,95073.69
2022-12-31T11:45:15.326Z,95076.81
2022-12-31T11:50:55.199Z,95077.50
2022-12-31T11:53:37.031Z,95068.09
2022-12-31T11:56:15.897Z,95056.38
2022-12-31T11:58:46.812Z,95049.13
2022-12-31T12:01:20.042Z,95047.19
2022-12-31T12:03:48.681Z,95036.50
2022-12-31T12:06:18.166Z,95036.78
2022-12-31T12:08:46.080Z,95040.72
2022-12-31T12:11:20.496Z,95034.41
2022-12-31T12:13:47.820Z,95031.88
2022-12-31T12:16:15.501Z,95021.34
2022-12-31T12:18:44.489Z,95027.50
2022-12-31T12:21:16.084Z,95033.84
2022-12-31T12:23:55.562Z,95024.22
2022-12-31T12:26:35.305Z,95021.41
2022-12-31T12:29:10.449Z,95020.09
2022-12-31T12:31:38.020Z,95027.03
2022-12-31T12:34:05.538Z,95023.34
2022-12-31T12:36:33.949Z,95027.59
2022-12-31T12:39:02.349Z,95026.66
2022-12-31T12:41:29.303Z,95030.38
2022-12-31T12:44:04.634Z,95030.38
2022-12-31T12:46:34.465Z,95022.50
2022-12-31T12:49:03.159Z,95026.66
2022-12-31T12:51:50.898Z,95019.72
2022-12-31T12:54:38.194Z,95025.34
2022-12-31T12:57:10.719Z,95025.03
2022-12-31T13:00:09.814Z,95025.38
2022-12-31T13:02:58.718Z,95026.38
2022-12-31T13:05:36.836Z,95018.41
2022-12-31T13:08:15.078Z,95021.19
2022-12-31T13:11:05.244Z,95016.78
2022-12-31T13:13:41.698Z,95013.06
2022-12-31T13:16:15.436Z,95014.34
2022-12-31T13:18:53.120Z,95014.91
2022-12-31T13:21:30.300Z,95009.22
2022-12-31T13:24:05.816Z,95009.50
2022-12-31T13:26:38.863Z,95011.66
2022-12-31T13:29:08.775Z,95009.69
2022-12-31T13:31:39.140Z,95020.50
2022-12-31T13:34:10.934Z,95013.66
2022-12-31T13:36:41.666Z,95017.38
2022-12-31T13:39:16.414Z,95014.66
2022-12-31T13:41:50.174Z,95022.94
2022-12-31T13:44:27.709Z,95015.28
2022-12-31T13:47:00.657Z,95025.28
2022-12-31T13:49:32.698Z,95025.28
2022-12-31T13:52:05.671Z,95017.00
2022-12-31T13:54:41.112Z,95012.50
2022-12-31T13:57:16.853Z,95017.88
2022-12-31T13:59:48.419Z,95013.94
2022-12-31T14:02:27.455Z,95021.69
2022-12-31T14:05:00.124Z,95028.28
2022-12-31T14:07:38.967Z,95024.72
2022-12-31T14:10:13.921Z,95024.13
2022-12-31T14:12:50.509Z,95023.22
2022-12-31T14:15:24.333Z,95026.59
2022-12-31T14:18:00.864Z,95026.28
2022-12-31T14:20:38.876Z,95028.31
2022-12-31T14:23:13.900Z,95024.06
2022-12-31T14:25:48.044Z,95022.44
2022-12-31T14:28:19.548Z,95030.06
2022-12-31T14:30:52.477Z,95033.19
2022-12-31T14:33:31.961Z,95034.72
2022-12-31T14:36:19.948Z,95034.13
2022-12-31T14:39:03.854Z,95035.13
2022-12-31T14:41:44.853Z,95036.66
2022-12-31T14:44:27.069Z,95033.63
2022-12-31T14:47:06.421Z,95033.22
2022-12-31T14:49:48.101Z,95040.50
2022-12-31T14:52:25.061Z,95039.06
2022-12-31T14:55:00.663Z,95041.81
2022-12-31T14:57:54.412Z,95044.84
2022-12-31T15:00:32.715Z,95054.28
2022-12-31T15:03:02.422Z,95054.38
2022-12-31T15:05:31.655Z,95057.41
2022-12-31T15:08:25.670Z,95062.53
2022-12-31T15:11:10.441Z,95064.22
2022-12-31T15:13:52.583Z,95064.31
2022-12-31T15:16:32.888Z,95068.34
2022-12-31T15:19:19.938Z,95074.75
2022-12-31T15:21:58.445Z,95063.38
2022-12-31T15:24:27.562Z,95066.91
2022-12-31T15:26:57.784Z,95064.31
2022-12-31T15:29:29.025Z,95065.97
2022-12-31T15:31:58.993Z,95065.22
2022-12-31T15:34:29.582Z,95073.00
2022-12-31T15:36:58.199Z,95075.94
2022-12-31T15:39:42.566Z,95078.38
2022-12-31T15:42:37.771Z,95087.97
2022-12-31T15:45:13.590Z,95085.91
2022-12-31T15:47:46.224Z,95089.59
2022-12-31T15:50:17.126Z,95095.19
2022-12-31T15:52:48.011Z,95088.84
2022-12-31T15:55:23.041Z,95084.31
2022-12-31T15:57:50.718Z,95085.16
2022-12-31T16:00:20.905Z,95088.06
2022-12-31T16:02:50.883Z,95084.09
2022-12-31T16:05:22.905Z,95108.50
2022-12-31T16:07:53.818Z,95101.34
2022-12-31T16:10:24.999Z,95095.47
2022-12-31T16:12:52.982Z,95102.38
2022-12-31T16:15:23.785Z,95105.25
2022-12-31T16:18:01.946Z,95100.69
2022-12-31T16:20:31.119Z,95106.25
2022-12-31T16:22:58.076Z,95103.81
2022-12-31T16:25:33.746Z,95104.88
2022-12-31T16:28:02.982Z,95110.16
2022-12-31T16:30:32.918Z,95119.66
2022-12-31T16:33:02.390Z,95118.81
2022-12-31T16:35:31.389Z,95118.53
2022-12-31T16:38:03.674Z,95127.00
2022-12-31T16:40:30.994Z,95123.28
2022-12-31T16:42:57.875Z,95134.94
2022-12-31T16:45:34.645Z,95135.47
2022-12-31T16:48:11.220Z,95134.13
2022-12-31T16:50:45.729Z,95125.03
2022-12-31T16:53:17.640Z,95133.50
2022-12-31T16:55:52.275Z,95131.88
2022-12-31T16:58:23.682Z,95136.31
2022-12-31T17:00:52.713Z,95124.91
2022-12-31T17:03:22.353Z,95132.22
2022-12-31T17:06:03.490Z,95129.78
2022-12-31T17:08:40.794Z,95134.44
2022-12-31T17:11:24.208Z,95123.00
2022-12-31T17:13:56.632Z,95131.69
2022-12-31T17:16:25.726Z,95130.00
2022-12-31T17:18:52.848Z,95132.53
2022-12-31T17:21:22.809Z,95127.44
2022-12-31T17:23:54.534Z,95134.56
2022-12-31T17:26:24.888Z,95139.06
2022-12-31T17:28:53.623Z,95132.63
2022-12-31T17:31:31.594Z,95125.91
2022-12-31T17:34:20.710Z,95129.22
2022-12-31T17:37:17.807Z,95129.72
2022-12-31T17:39:50.718Z,95127.03
2022-12-31T17:42:31.529Z,95124.06
2022-12-31T17:45:00.956Z,95116.06
2022-12-31T17:47:35.765Z,95118.13
2022-12-31T17:50:09.838Z,95116.16
2022-12-31T17:52:36.688Z,95119.78
2022-12-31T17:55:03.688Z,95124.25
2022-12-31T17:57:30.484Z,95119.47
2022-12-31T17:59:57.402Z,95133.09
2022-12-31T18:02:24.253Z,95124.09
2022-12-31T18:04:53.237Z,95120.59
2022-12-31T18:07:19.942Z,95121.31
2022-12-31T18:09:46.681Z,95115.41
2022-12-31T18:12:15.396Z,95118.22
2022-12-31T18:14:44.373Z,95124.53
2022-12-31T18:17:15.232Z,95125.81
2022-12-31T18:22:29.976Z,95124.38
2022-12-31T18:24:56.688Z,95130.00
2022-12-31T18:27:23.330Z,95128.44
2022-12-31T18:29:50.067Z,95130.59
2022-12-31T18:32:20.588Z,95122.69
2022-12-31T18:34:47.410Z,95134.78
2022-12-31T18:37:21.224Z,95140.56
2022-12-31T18:39:49.662Z,95130.00
2022-12-31T18:42:18.650Z,95135.44
2022-12-31T18:44:46.098Z,95149.00
2022-12-31T18:47:13.623Z,95146.28
2022-12-31T18:49:40.977Z,95140.53
2022-12-31T18:52:13.199Z,95144.03
2022-12-31T18:54:39.867Z,95141.38
2022-12-31T18:57:09.041Z,95142.44
2022-12-31T18:59:35.705Z,95139.50
2022-12-31T19:02:02.877Z,95138.59
2022-12-31T19:04:29.675Z,95140.69
2022-12-31T19:06:56.927Z,95142.28
2022-12-31T19:12:14.291Z,95186.63
2022-12-31T19:14:41.231Z,95212.53
2022-12-31T19:19:34.719Z,95196.09
2022-12-31T19:22:01.669Z,95213.72
2022-12-31T19:24:28.582Z,95218.78
2022-12-31T19:26:55.342Z,95216.22
2022-12-31T19:29:24.884Z,95224.72
2022-12-31T19:31:51.695Z,95222.38
2022-12-31T19:34:18.737Z,95211.94
2022-12-31T19:36:45.454Z,95218.72
2022-12-31T19:39:15.976Z,95215.56
2022-12-31T19:41:43.643Z,95217.63
2022-12-31T19:44:14.774Z,95224.94
2022-12-31T19:46:43.043Z,95231.31
2022-12-31T19:49:10.712Z,95229.63
2022-12-31T19:51:37.451Z,95233.28
2022-12-31T19:54:04.235Z,95234.88
2022-12-31T19:56:30.921Z,95239.69
2022-12-31T19:58:57.619Z,95241.38
2022-12-31T20:01:25.228Z,95234.13
2022-12-31T20:03:53.460Z,95232.06
2022-12-31T20:06:20.132Z,95244.09
2022-12-31T20:08:46.989Z,95244.47
2022-12-31T20:11:17.248Z,95236.94
2022-12-31T20:13:45.274Z,95246.25
2022-12-31T20:16:15.017Z,95240.88
2022-12-31T20:18:43.584Z,95255.41
2022-12-31T20:21:13.515Z,95255.53
2022-12-31T20:23:40.532Z,95257.13
2022-12-31T20:26:07.338Z,95263.56
2022-12-31T20:28:35.239Z,95265.78
2022-12-31T20:31:05.353Z,95275.84
2022-12-31T20:33:32.053Z,95279.09
2022-12-31T20:36:02.070Z,95276.56
2022-12-31T20:38:30.274Z,95275.78
2022-12-31T20:41:02.917Z,95269.81
2022-12-31T20:43:30.310Z,95276.44
2022-12-31T20:45:56.988Z,95281.72
2022-12-31T20:48:23.816Z,95280.78
2022-12-31T20:50:54.400Z,95278.06
2022-12-31T20:53:21.065Z,95279.22
2022-12-31T20:55:49.212Z,95271.41
2022-12-31T20:58:16.440Z,95276.09
2022-12-31T21:00:47.935Z,95277.03
2022-12-31T21:03:37.266Z,95271.66
2022-12-31T21:06:01.854Z,95278.38
2022-12-31T21:08:34.564Z,95278.06
2022-12-31T21:11:23.544Z,95286.41
2022-12-31T21:13:50.499Z,95275.44
2022-12-31T21:16:18.137Z,95274.59
2022-12-31T21:18:44.800Z,95267.53
2022-12-31T21:21:12.101Z,95258.69
2022-12-31T21:23:38.933Z,95252.19
2022-12-31T21:26:07.488Z,95248.66
2022-12-31T21:28:34.496Z,95251.41
2022-12-31T21:31:02.683Z,95258.16
2022-12-31T21:33:29.838Z,95250.81
2022-12-31T21:36:02.603Z,95255.53
2022-12-31T21:38:31.061Z,95256.44
2022-12-31T21:41:02.131Z,95251.88
2022-12-31T21:43:30.338Z,95261.03
2022-12-31T21:46:01.556Z,95259.41
2022-12-31T21:48:28.305Z,95246.25
2022-12-31T21:51:05.422Z,95252.41
2022-12-31T21:53:36.713Z,95260.44
2022-12-31T21:56:11.506Z,95242.91
2022-12-31T21:58:42.266Z,95251.97
2022-12-31T22:01:33.944Z,95257.81
2022-12-31T22:04:00.795Z,95249.44
2022-12-31T22:06:27.719Z,95240.06
2022-12-31T22:08:56.620Z,95244.78
2022-12-31T22:11:25.607Z,95249.91
2022-12-31T22:13:54.387Z,95246.94
2022-12-31T22:16:22.258Z,95244.06
2022-12-31T22:18:49.833Z,95238.34
2022-12-31T22:21:20.011Z,95231.81
2022-12-31T22:23:48.820Z,95233.44
2022-12-31T22:26:17.633Z,95234.00
2022-12-31T22:28:45.737Z,95226.94
2022-12-31T22:31:15.536Z,95223.25
2022-12-31T22:33:42.395Z,95222.00
2022-12-31T22:36:11.984Z,95222.44
2022-12-31T22:38:38.802Z,95216.25
2022-12-31T22:41:07.623Z,95212.25
2022-12-31T22:43:36.363Z,95215.34
2022-12-31T22:46:08.204Z,95219.31
2022-12-31T22:48:36.699Z,95220.47
2022-12-31T22:51:03.605Z,95219.56
2022-12-31T22:53:30.608Z,95218.09
2022-12-31T22:55:57.412Z,95223.25
2022-12-31T22:58:24.738Z,95223.34
2022-12-31T23:00:52.180Z,95220.03
2022-12-31T23:03:19.102Z,95222.00
2022-12-31T23:05:50.501Z,95218.91
2022-12-31T23:08:22.792Z,95213.63
2022-12-31T23:11:02.774Z,95213.41
2022-12-31T23:13:51.407Z,95223.69
2022-12-31T23:16:37.146Z,95215.16
2022-12-31T23:19:23.184Z,95220.03
2022-12-31T23:22:11.231Z,95234.00
2022-12-31T23:24:38.485Z,95240.75
2022-12-31T23:27:05.843Z,95231.03
2022-12-31T23:29:33.039Z,95234.00
2022-12-31T23:31:59.924Z,95238.00
2022-12-31T23:34:26.558Z,95232.06
2022-12-31T23:36:54.599Z,95236.28
2022-12-31T23:39:21.392Z,95237.00
2022-12-31T23:41:48.119Z,95226.34
2022-12-31T23:44:14.889Z,95246.25
2022-12-31T23:46:42.361Z,95247.75
2022-12-31T23:49:09.201Z,95248.75
2022-12-31T23:51:36.677Z,95238.94
2022-12-31T23:54:04.944Z,95244.06
2022-12-31T23:56:31.640Z,95263.75
2022-12-31T23:58:59.388Z,95260.06
